Time;durP1;ratioP1;P1;durP2;ratioP2;P2;SDS_P1;SDS_P2;PMS_P1;PMS_P2;Temp;Humidity;BMP_temperature;BMP_pressure;BME280_temperature;BME280_humidity;BME280_pressure;Samples;Min_cycle;Max_cycle;Signal;HPM_P1;HPM_P2
2021/12/22 00:01:40;;;;;;;31.60;12.90;;;;;;;-3.31;75.10;101069.46;126736;1318;109011;-81
2021/12/22 00:04:49;;;;;;;38.80;17.40;;;;;;;-3.41;75.07;101074.98;126591;1317;108706;-79
2021/12/22 00:07:55;;;;;;;34.50;14.70;;;;;;;-3.50;75.04;101080.44;126595;1315;109646;-80
2021/12/22 00:11:00;;;;;;;32.90;14.10;;;;;;;-3.52;75.34;101074.08;126676;1315;108817;-81
2021/12/22 00:14:06;;;;;;;36.20;13.70;;;;;;;-3.46;75.41;101077.39;126730;1317;108848;-78
2021/12/22 00:17:11;;;;;;;33.20;13.20;;;;;;;-3.40;75.18;101081.73;126426;1315;106758;-82
2021/12/22 00:20:17;;;;;;;32.70;14.50;;;;;;;-3.37;75.06;101080.08;126300;1311;108914;-81
2021/12/22 00:23:22;;;;;;;30.70;13.40;;;;;;;-3.34;75.10;101085.23;126481;1315;110895;-82
2021/12/22 00:26:28;;;;;;;34.40;15.40;;;;;;;-3.37;74.90;101092.61;126646;1317;108834;-80
2021/12/22 00:29:33;;;;;;;40.40;15.20;;;;;;;-3.39;74.98;101092.50;126499;1317;108741;-79
2021/12/22 00:32:40;;;;;;;41.80;15.40;;;;;;;-3.42;75.07;101085.80;126462;1317;108863;-79
2021/12/22 00:35:45;;;;;;;34.90;14.40;;;;;;;-3.42;74.97;101086.85;126528;1316;107749;-79
2021/12/22 00:38:52;;;;;;;30.70;13.20;;;;;;;-3.47;74.84;101092.91;126471;1318;108203;-83
2021/12/22 00:41:57;;;;;;;33.20;13.80;;;;;;;-3.55;75.06;101091.55;126530;1318;109035;-78
2021/12/22 00:45:03;;;;;;;34.80;14.50;;;;;;;-3.62;75.03;101099.21;126494;1317;108987;-80
2021/12/22 00:48:11;;;;;;;32.00;13.20;;;;;;;-3.65;75.05;101099.29;126540;1317;108769;-81
2021/12/22 00:51:16;;;;;;;33.60;13.50;;;;;;;-3.69;75.01;101100.11;126477;1318;108649;-80
2021/12/22 00:54:21;;;;;;;29.30;13.00;;;;;;;-3.70;75.18;101106.22;126289;1317;108809;-81
2021/12/22 00:57:27;;;;;;;30.90;13.70;;;;;;;-3.72;75.21;101106.45;126356;1318;109060;-80
2021/12/22 01:00:33;;;;;;;35.20;13.20;;;;;;;-3.75;75.26;101103.41;126394;1317;108753;-79
2021/12/22 01:03:41;;;;;;;28.30;10.90;;;;;;;-3.72;75.27;101107.49;126408;1318;108441;-80
2021/12/22 01:06:46;;;;;;;32.40;13.30;;;;;;;-3.64;75.21;101108.66;126431;1312;107378;-81
2021/12/22 01:09:52;;;;;;;32.10;14.10;;;;;;;-3.62;75.22;101110.17;126387;1314;109254;-81
2021/12/22 01:13:00;;;;;;;32.30;15.40;;;;;;;-3.66;75.12;101116.19;126383;1312;108843;-81
2021/12/22 01:16:06;;;;;;;32.20;15.00;;;;;;;-3.75;75.27;101115.89;126367;1314;108712;-81
2021/12/22 01:19:14;;;;;;;34.70;14.60;;;;;;;-3.90;75.60;101119.98;126423;1310;108904;-81
2021/12/22 01:22:28;;;;;;;31.60;13.80;;;;;;;-4.03;75.41;101123.23;126329;1310;108748;-79
2021/12/22 01:25:38;;;;;;;34.70;15.20;;;;;;;-4.08;75.57;101119.38;126329;1315;108822;-80
2021/12/22 01:28:44;;;;;;;37.10;14.90;;;;;;;-4.16;75.43;101122.88;126360;1318;108624;-79
2021/12/22 01:31:49;;;;;;;28.10;13.00;;;;;;;-4.25;75.38;101122.23;126334;1312;108791;-79
2021/12/22 01:34:55;;;;;;;32.10;14.60;;;;;;;-4.27;75.57;101123.16;126386;1311;109004;-78
2021/12/22 01:38:00;;;;;;;31.60;13.90;;;;;;;-4.25;75.60;101128.32;126418;1315;108942;-78
2021/12/22 01:41:06;;;;;;;30.80;13.30;;;;;;;-4.24;75.45;101131.23;126444;1310;108790;-79
2021/12/22 01:44:13;;;;;;;31.70;12.80;;;;;;;-4.23;75.51;101129.64;126398;1315;108959;-78
2021/12/22 01:50:45;;;;;;;38.50;14.60;;;;;;;-4.20;75.45;101130.27;126372;1317;108837;-78
2021/12/22 01:53:52;;;;;;;35.10;14.60;;;;;;;-4.17;75.22;101133.31;126433;1310;108746;-79
2021/12/22 01:57:01;;;;;;;32.10;13.90;;;;;;;-4.15;75.34;101132.21;126471;1316;108819;-79
2021/12/22 02:00:09;;;;;;;33.90;14.10;;;;;;;-4.16;75.21;101131.03;126457;1315;108736;-81
2021/12/22 02:03:18;;;;;;;31.60;14.70;;;;;;;-4.16;75.58;101138.15;126396;1310;108775;-81
2021/12/22 02:06:24;;;;;;;32.00;14.10;;;;;;;-4.22;75.34;101132.05;126433;1311;107368;-82
2021/12/22 02:09:47;;;;;;;28.50;13.20;;;;;;;-4.23;75.45;101136.43;126510;1316;108791;-81
2021/12/22 02:12:55;;;;;;;33.40;14.00;;;;;;;-4.22;75.29;101133.45;126524;1314;108944;-81
2021/12/22 02:16:06;;;;;;;26.40;13.10;;;;;;;-4.24;75.60;101133.15;126445;1315;108631;-81
2021/12/22 02:19:12;;;;;;;27.40;13.20;;;;;;;-4.21;75.86;101130.99;126322;1314;167865;-82
2021/12/22 02:22:18;;;;;;;31.40;14.70;;;;;;;-4.14;75.74;101130.31;126474;1310;109088;-82
2021/12/22 02:25:38;;;;;;;26.70;11.50;;;;;;;-4.05;75.56;101131.45;126452;1312;108799;-81
2021/12/22 02:28:47;;;;;;;28.20;11.70;;;;;;;-3.92;75.58;101132.69;126457;1310;108723;-80
2021/12/22 02:32:04;;;;;;;26.60;12.00;;;;;;;-3.76;75.71;101134.71;126452;1316;108958;-80
2021/12/22 02:35:10;;;;;;;27.60;12.00;;;;;;;-3.68;75.35;101132.80;126388;1312;108596;-80
2021/12/22 02:38:18;;;;;;;27.80;12.50;;;;;;;-3.68;75.37;101134.85;126447;1312;107750;-79
2021/12/22 02:41:27;;;;;;;26.40;12.20;;;;;;;-3.66;75.47;101135.84;126408;1312;108867;-77
2021/12/22 02:44:33;;;;;;;29.80;14.20;;;;;;;-3.70;75.19;101134.38;126442;1311;108713;-78
2021/12/22 02:47:38;;;;;;;26.40;12.40;;;;;;;-3.65;75.47;101126.59;126432;1315;107765;-79
2021/12/22 02:50:45;;;;;;;24.50;12.00;;;;;;;-3.59;75.49;101130.77;126486;1312;108518;-79
2021/12/22 02:54:03;;;;;;;24.20;12.20;;;;;;;-3.55;75.32;101127.02;126425;1315;108726;-77
2021/12/22 02:57:21;;;;;;;29.00;12.70;;;;;;;-3.57;75.30;101126.04;126403;1312;109045;-77
2021/12/22 03:00:35;;;;;;;24.50;12.10;;;;;;;-3.56;75.54;101125.13;126351;1318;108752;-77
2021/12/22 03:03:54;;;;;;;26.90;11.80;;;;;;;-3.49;75.57;101125.30;126395;1315;107753;-77
2021/12/22 03:07:04;;;;;;;30.40;13.50;;;;;;;-3.40;75.21;101129.40;126386;1311;108736;-76
2021/12/22 03:10:14;;;;;;;25.20;11.30;;;;;;;-3.28;75.32;101129.58;126393;1311;109010;-76
2021/12/22 03:13:22;;;;;;;28.80;12.60;;;;;;;-3.24;74.96;101130.15;126434;1311;108725;-77
2021/12/22 03:16:28;;;;;;;26.80;12.70;;;;;;;-3.23;75.04;101131.90;126485;1312;108975;-76
2021/12/22 03:19:35;;;;;;;24.50;11.30;;;;;;;-3.26;74.99;101132.85;126496;1318;107665;-76
2021/12/22 03:22:44;;;;;;;24.10;12.10;;;;;;;-3.35;75.12;101137.80;126412;1311;109031;-75
2021/12/22 03:25:52;;;;;;;24.40;12.20;;;;;;;-3.42;75.26;101143.38;126417;1314;108878;-75
2021/12/22 03:28:58;;;;;;;27.10;12.70;;;;;;;-3.46;75.31;101144.88;126374;1310;108937;-76
2021/12/22 03:32:04;;;;;;;22.70;11.70;;;;;;;-3.47;75.62;101146.11;126363;1314;108812;-75
2021/12/22 03:35:15;;;;;;;23.30;11.40;;;;;;;-3.44;75.54;101146.56;126433;1315;109063;-74
2021/12/22 03:38:21;;;;;;;28.30;14.30;;;;;;;-3.45;75.52;101150.93;126364;1312;106733;-76
2021/12/22 03:41:27;;;;;;;27.60;12.30;;;;;;;-3.38;75.73;101151.60;126450;1312;108757;-76
2021/12/22 03:44:33;;;;;;;25.00;11.80;;;;;;;-3.31;75.63;101159.45;126411;1312;108902;-75
2021/12/22 03:47:38;;;;;;;22.00;10.80;;;;;;;-3.27;75.36;101161.92;126426;1312;108396;-77
2021/12/22 03:50:44;;;;;;;20.30;9.80;;;;;;;-3.20;75.38;101160.33;126398;1312;108977;-77
2021/12/22 03:53:49;;;;;;;24.10;11.40;;;;;;;-3.17;75.21;101165.63;126536;1312;106722;-81
2021/12/22 03:56:55;;;;;;;23.40;11.50;;;;;;;-3.18;75.33;101171.94;126442;1310;109479;-79
2021/12/22 04:00:01;;;;;;;27.20;11.70;;;;;;;-3.23;75.42;101172.61;126436;1312;108869;-76
2021/12/22 04:03:10;;;;;;;26.20;11.90;;;;;;;-3.24;75.23;101175.95;126442;1310;108937;-76
2021/12/22 04:06:16;;;;;;;24.50;12.30;;;;;;;-3.29;75.27;101174.16;126420;1314;108773;-75
2021/12/22 04:09:27;;;;;;;24.30;12.10;;;;;;;-3.36;75.46;101175.39;126459;1312;109040;-80
2021/12/22 04:12:32;;;;;;;24.10;12.20;;;;;;;-3.41;75.69;101179.01;126592;1314;108919;-81
2021/12/22 04:15:38;;;;;;;22.10;12.20;;;;;;;-3.45;75.78;101184.70;126591;1315;109048;-81
2021/12/22 04:18:44;;;;;;;29.40;13.80;;;;;;;-3.55;75.88;101182.33;126503;1311;108762;-79
2021/12/22 04:21:50;;;;;;;36.90;16.40;;;;;;;-3.66;76.12;101186.09;126440;1310;108812;-81
2021/12/22 04:24:55;;;;;;;23.50;12.40;;;;;;;-3.70;76.22;101186.72;126477;1315;108929;-80
2021/12/22 04:28:05;;;;;;;26.00;13.40;;;;;;;-3.75;76.46;101185.29;126415;1314;108929;-81
2021/12/22 04:31:10;;;;;;;25.70;13.20;;;;;;;-3.81;76.55;101184.74;126458;1309;106398;-77
2021/12/22 04:34:16;;;;;;;27.30;13.40;;;;;;;-3.83;76.57;101182.70;126468;1311;109162;-78
2021/12/22 04:37:21;;;;;;;33.70;15.00;;;;;;;-3.83;76.51;101180.80;126478;1312;108995;-74
2021/12/22 04:40:27;;;;;;;26.60;12.70;;;;;;;-3.81;76.62;101182.81;126478;1312;107744;-79
2021/12/22 04:43:32;;;;;;;25.90;12.60;;;;;;;-3.85;76.39;101181.54;126515;1312;108841;-77
2021/12/22 04:46:38;;;;;;;26.80;13.40;;;;;;;-3.86;76.38;101183.48;126482;1312;108763;-78
2021/12/22 04:49:43;;;;;;;34.50;15.70;;;;;;;-3.85;76.52;101183.45;126390;1312;108944;-78
2021/12/22 04:52:56;;;;;;;30.50;15.80;;;;;;;-3.90;76.86;101184.29;126314;1315;108818;-78
2021/12/22 04:56:01;;;;;;;29.30;14.70;;;;;;;-3.95;77.00;101187.33;126352;1315;108603;-78
2021/12/22 04:59:07;;;;;;;28.10;15.90;;;;;;;-3.91;76.97;101184.65;126281;1311;108832;-79
2021/12/22 05:02:12;;;;;;;30.00;16.00;;;;;;;-3.80;76.99;101184.20;126408;1310;109020;-79
2021/12/22 05:05:18;;;;;;;30.90;16.30;;;;;;;-3.68;76.65;101190.16;126358;1311;108448;-78
2021/12/22 05:08:23;;;;;;;30.70;17.10;;;;;;;-3.60;76.69;101189.92;126616;1315;108927;-81
2021/12/22 05:11:29;;;;;;;31.20;15.60;;;;;;;-3.56;76.77;101187.92;126997;1312;107753;-80
2021/12/22 05:14:34;;;;;;;31.00;16.50;;;;;;;-3.55;76.52;101184.06;126640;1311;108801;-81
2021/12/22 05:18:12;;;;;;;27.10;14.40;;;;;;;-3.53;76.35;101185.27;126531;1310;108940;-79
2021/12/22 05:21:16;;;;;;;26.80;14.50;;;;;;;-3.50;76.49;101184.14;126737;1312;108903;-78
2021/12/22 05:24:22;;;;;;;24.60;14.10;;;;;;;-3.42;76.43;101186.86;126601;1310;108936;-76
2021/12/22 05:27:27;;;;;;;23.00;12.10;;;;;;;-3.33;76.40;101178.98;126481;1312;109065;-77
2021/12/22 05:30:33;;;;;;;27.00;12.80;;;;;;;-3.28;76.43;101183.02;126432;1310;108399;-77
2021/12/22 05:33:38;;;;;;;64.50;31.20;;;;;;;-3.28;75.98;101181.61;126487;1311;108780;-76
2021/12/22 05:36:44;;;;;;;47.30;21.70;;;;;;;-3.29;76.10;101186.86;126623;1311;108608;-78
2021/12/22 05:39:49;;;;;;;61.60;22.10;;;;;;;-3.18;75.78;101187.25;126420;1311;108987;-82
2021/12/22 05:42:59;;;;;;;24.80;11.40;;;;;;;-3.12;75.66;101193.53;126683;1310;108816;-83
2021/12/22 05:46:05;;;;;;;29.70;11.60;;;;;;;-3.16;75.53;101195.02;126549;1312;108951;-80
2021/12/22 05:49:10;;;;;;;31.00;12.80;;;;;;;-3.10;75.56;101193.47;126770;1310;106785;-83
2021/12/22 05:52:16;;;;;;;36.10;15.80;;;;;;;-3.13;75.36;101204.70;126748;1311;108820;-79
2021/12/22 05:55:22;;;;;;;27.90;14.50;;;;;;;-3.15;75.71;101205.11;126696;1311;109498;-85
2021/12/22 05:58:28;;;;;;;29.70;12.90;;;;;;;-3.12;75.51;101211.47;126755;1315;108923;-78
2021/12/22 06:01:33;;;;;;;24.10;11.50;;;;;;;-3.18;75.40;101214.91;126482;1311;108872;-82
2021/12/22 06:04:39;;;;;;;24.60;12.60;;;;;;;-3.24;75.22;101223.11;126708;1311;108736;-83
2021/12/22 06:07:44;;;;;;;26.00;11.50;;;;;;;-3.31;75.31;101225.19;127055;1312;108942;-85
2021/12/22 06:10:50;;;;;;;26.10;11.90;;;;;;;-3.40;75.38;101228.05;126626;1312;107801;-81
2021/12/22 06:13:55;;;;;;;24.80;12.30;;;;;;;-3.46;75.41;101233.41;126532;1312;108871;-86
2021/12/22 06:17:01;;;;;;;34.90;16.60;;;;;;;-3.49;75.36;101234.37;126652;1312;108813;-83
2021/12/22 06:20:08;;;;;;;104.50;44.70;;;;;;;-3.54;75.16;101235.02;126553;1310;108913;-79
2021/12/22 06:23:14;;;;;;;58.90;25.00;;;;;;;-3.58;75.38;101238.23;126541;1312;108808;-85
2021/12/22 06:26:19;;;;;;;72.10;31.60;;;;;;;-3.59;75.54;101241.89;126669;1315;108737;-83
2021/12/22 06:29:25;;;;;;;111.70;45.50;;;;;;;-3.53;75.47;101241.60;126522;1312;108910;-83
2021/12/22 06:32:30;;;;;;;70.50;29.80;;;;;;;-3.45;75.36;101244.88;126548;1312;109237;-83
2021/12/22 06:35:36;;;;;;;56.30;25.00;;;;;;;-3.39;75.10;101245.58;126619;1312;107856;-82
2021/12/22 06:38:42;;;;;;;88.50;38.40;;;;;;;-3.32;75.17;101253.06;126576;1312;108849;-84
2021/12/22 06:41:50;;;;;;;91.00;44.10;;;;;;;-3.24;75.22;101257.89;126644;1311;108819;-84
2021/12/22 06:44:55;;;;;;;49.80;24.30;;;;;;;-3.20;74.86;101260.36;126560;1312;109077;-81
2021/12/22 06:48:01;;;;;;;94.50;44.80;;;;;;;-3.17;75.05;101261.19;126591;1311;107512;-83
2021/12/22 06:51:07;;;;;;;55.80;26.40;;;;;;;-3.16;74.78;101266.20;127416;1312;108841;-81
2021/12/22 06:54:13;;;;;;;58.20;29.00;;;;;;;-3.16;75.00;101263.42;126719;1312;110153;-81
2021/12/22 06:57:20;;;;;;;54.10;25.80;;;;;;;-3.17;74.82;101269.69;126758;1314;108766;-83
2021/12/22 07:00:26;;;;;;;37.20;17.70;;;;;;;-3.18;74.87;101267.45;126716;1314;109029;-83
2021/12/22 07:03:31;;;;;;;246.80;92.90;;;;;;;-3.19;74.71;101268.89;126488;1311;108825;-79
2021/12/22 07:06:37;;;;;;;155.60;67.00;;;;;;;-3.27;74.90;101272.92;126707;1312;108988;-79
2021/12/22 07:09:43;;;;;;;58.40;29.00;;;;;;;-3.31;74.47;101279.30;126635;1311;107821;-78
2021/12/22 07:12:49;;;;;;;45.10;22.40;;;;;;;-3.36;74.45;101283.43;126506;1312;107501;-79
2021/12/22 07:15:54;;;;;;;39.10;18.80;;;;;;;-3.36;74.92;101281.52;126346;1312;108738;-80
2021/12/22 07:19:01;;;;;;;33.10;16.40;;;;;;;-3.41;74.44;101283.71;126531;1312;108716;-79
2021/12/22 07:22:07;;;;;;;29.30;13.60;;;;;;;-3.46;74.57;101287.32;126538;1316;107879;-79
2021/12/22 07:25:14;;;;;;;26.50;12.50;;;;;;;-3.52;74.26;101291.48;126367;1311;107083;-79
2021/12/22 07:28:19;;;;;;;26.90;13.90;;;;;;;-3.56;74.63;101290.36;126436;1311;108710;-78
2021/12/22 07:31:25;;;;;;;25.00;12.20;;;;;;;-3.48;74.60;101290.34;126521;1312;106581;-79
2021/12/22 07:34:39;;;;;;;32.30;12.10;;;;;;;-3.37;74.53;101289.72;126418;1311;108624;-78
2021/12/22 07:37:52;;;;;;;29.00;13.70;;;;;;;-3.32;74.41;101287.52;126524;1311;108778;-78
2021/12/22 07:40:59;;;;;;;33.30;16.80;;;;;;;-3.26;74.52;101289.96;126530;1310;108814;-77
2021/12/22 07:44:05;;;;;;;33.50;15.00;;;;;;;-3.18;74.59;101292.52;126492;1310;108951;-79
2021/12/22 07:47:11;;;;;;;33.60;15.50;;;;;;;-3.12;74.53;101294.48;126570;1311;108936;-81
2021/12/22 07:50:16;;;;;;;33.30;14.10;;;;;;;-3.08;74.19;101297.33;126582;1312;108791;-79
2021/12/22 07:53:22;;;;;;;29.00;13.40;;;;;;;-3.16;73.94;101302.40;126666;1310;109774;-79
2021/12/22 07:56:28;;;;;;;30.20;14.60;;;;;;;-3.25;74.35;101304.20;126575;1311;108912;-80
2021/12/22 07:59:33;;;;;;;29.50;14.00;;;;;;;-3.28;73.89;101301.14;126668;1316;107294;-78
2021/12/22 08:02:39;;;;;;;33.10;17.00;;;;;;;-3.27;74.47;101305.64;126852;1312;107386;-80
2021/12/22 08:05:44;;;;;;;49.40;26.00;;;;;;;-3.22;74.28;101302.05;127155;1315;109306;-80
2021/12/22 08:08:50;;;;;;;31.60;15.20;;;;;;;-3.19;74.12;101304.39;126894;1312;108733;-79
2021/12/22 08:11:56;;;;;;;37.90;19.10;;;;;;;-3.17;74.21;101304.69;126899;1310;108873;-80
2021/12/22 08:15:03;;;;;;;55.40;26.00;;;;;;;-3.18;74.05;101309.25;126896;1310;107689;-80
2021/12/22 08:18:08;;;;;;;38.70;19.60;;;;;;;-3.13;74.55;101305.48;126474;1310;108907;-79
2021/12/22 08:21:13;;;;;;;30.20;13.80;;;;;;;-3.02;73.98;101308.98;126826;1315;109265;-80
2021/12/22 08:24:19;;;;;;;40.20;17.10;;;;;;;-2.91;74.25;101312.03;126798;1310;109014;-77
2021/12/22 08:27:24;;;;;;;31.30;15.40;;;;;;;-2.79;74.10;101318.83;126566;1311;108977;-80
2021/12/22 08:30:30;;;;;;;34.00;16.00;;;;;;;-2.77;73.39;101321.39;126976;1312;109170;-79
2021/12/22 08:33:43;;;;;;;34.70;15.00;;;;;;;-2.78;73.06;101320.36;126541;1311;108737;-79
2021/12/22 08:40:16;;;;;;;28.10;14.50;;;;;;;-2.71;73.72;101324.73;126489;1309;108687;-78
2021/12/22 08:43:22;;;;;;;30.30;15.60;;;;;;;-2.75;72.86;101326.38;126720;1315;108861;-79
2021/12/22 08:46:28;;;;;;;33.30;17.00;;;;;;;-2.85;73.25;101328.75;126965;1314;108761;-79
2021/12/22 08:49:34;;;;;;;33.60;17.40;;;;;;;-2.92;73.32;101334.67;126799;1311;108773;-78
2021/12/22 08:52:39;;;;;;;32.30;15.20;;;;;;;-2.97;73.40;101338.14;126402;1311;109046;-78
2021/12/22 08:55:45;;;;;;;34.20;15.30;;;;;;;-2.99;73.64;101338.67;126376;1313;105884;-79
2021/12/22 08:58:50;;;;;;;33.40;14.60;;;;;;;-2.98;73.48;101335.53;126519;1315;108923;-79
2021/12/22 09:01:56;;;;;;;28.00;14.40;;;;;;;-2.92;73.84;101334.69;126436;1311;108900;-80
2021/12/22 09:05:02;;;;;;;33.10;15.20;;;;;;;-2.85;73.72;101337.45;126521;1314;108801;-78
2021/12/22 09:08:07;;;;;;;32.60;15.00;;;;;;;-2.76;73.41;101341.56;126621;1312;108865;-79
2021/12/22 09:11:14;;;;;;;30.90;14.40;;;;;;;-2.63;73.57;101346.61;126427;1314;109149;-78
2021/12/22 09:14:21;;;;;;;28.50;14.10;;;;;;;-2.55;72.22;101350.05;126424;1314;108991;-79
2021/12/22 09:17:26;;;;;;;25.30;12.60;;;;;;;-2.57;72.46;101346.79;126498;1317;108752;-80
2021/12/22 09:20:32;;;;;;;27.30;13.60;;;;;;;-2.56;72.20;101343.81;126472;1312;109782;-79
2021/12/22 09:23:38;;;;;;;26.00;12.90;;;;;;;-2.59;72.02;101349.98;126416;1312;108931;-79
2021/12/22 09:26:44;;;;;;;27.00;12.40;;;;;;;-2.62;72.41;101343.98;126480;1311;108946;-79
2021/12/22 09:29:49;;;;;;;25.20;12.50;;;;;;;-2.60;72.45;101342.69;126394;1311;108892;-79
2021/12/22 09:32:55;;;;;;;29.20;13.40;;;;;;;-2.64;71.37;101340.90;126420;1311;108764;-79
2021/12/22 09:36:02;;;;;;;28.40;13.80;;;;;;;-2.75;71.73;101337.19;126393;1312;106631;-79
2021/12/22 09:39:08;;;;;;;31.20;13.70;;;;;;;-2.78;71.76;101341.79;126268;1312;109009;-78
2021/12/22 09:42:13;;;;;;;38.90;14.70;;;;;;;-2.79;71.65;101337.45;126191;1311;108988;-79
2021/12/22 09:45:23;;;;;;;28.90;12.90;;;;;;;-2.75;72.36;101339.29;126274;1311;108785;-78
2021/12/22 09:48:36;;;;;;;41.00;19.40;;;;;;;-2.69;72.00;101334.94;126255;1311;108875;-80
2021/12/22 09:55:08;;;;;;;34.80;14.40;;;;;;;-2.48;71.85;101321.12;126480;1311;108933;-80
2021/12/22 09:58:14;;;;;;;24.10;11.50;;;;;;;-2.34;71.72;101322.83;126464;1311;106632;-79
2021/12/22 10:01:23;;;;;;;38.60;17.20;;;;;;;-2.34;70.07;101319.33;126559;1311;109064;-80
2021/12/22 10:04:29;;;;;;;31.10;15.70;;;;;;;-2.44;70.75;101321.17;126462;1311;108895;-78
2021/12/22 10:07:38;;;;;;;26.90;13.40;;;;;;;-2.48;71.22;101323.21;126499;1314;106763;-78
2021/12/22 10:10:46;;;;;;;30.60;13.80;;;;;;;-2.43;72.11;101319.75;126556;1311;108831;-79
2021/12/22 10:13:51;;;;;;;26.90;13.60;;;;;;;-2.31;71.81;101321.32;126716;1312;108943;-79
2021/12/22 10:16:58;;;;;;;26.80;13.70;;;;;;;-2.30;71.64;101316.42;126332;1310;344543;-80
2021/12/22 10:20:08;;;;;;;74.70;25.90;;;;;;;-2.34;71.50;101316.86;126510;1311;109141;-78
2021/12/22 10:23:26;;;;;;;38.50;16.70;;;;;;;-2.33;71.57;101322.79;126397;1311;107930;-79
2021/12/22 10:26:32;;;;;;;27.80;14.40;;;;;;;-2.31;71.32;101317.84;126354;1312;107823;-83
2021/12/22 10:29:37;;;;;;;26.30;13.30;;;;;;;-2.33;70.85;101317.04;126554;1311;105479;-84
2021/12/22 10:32:43;;;;;;;34.50;17.10;;;;;;;-2.33;70.65;101320.86;126762;1310;107672;-81
2021/12/22 10:35:51;;;;;;;33.00;16.40;;;;;;;-2.38;71.01;101318.03;126655;1310;107729;-79
2021/12/22 10:39:00;;;;;;;29.00;15.00;;;;;;;-2.29;71.40;101317.27;126700;1310;108812;-85
2021/12/22 10:42:09;;;;;;;26.60;14.00;;;;;;;-2.22;71.84;101313.90;126818;1311;108687;-84
2021/12/22 10:45:17;;;;;;;30.50;15.10;;;;;;;-2.09;71.57;101317.20;126736;1317;108802;-85
2021/12/22 10:52:00;;;;;;;30.60;14.10;;;;;;;-1.83;70.72;101323.20;127284;1311;106754;-85
2021/12/22 10:55:13;;;;;;;220.20;77.20;;;;;;;-1.71;70.25;101320.72;126818;1311;107635;-77
2021/12/22 10:58:23;;;;;;;280.20;108.70;;;;;;;-1.49;71.49;101319.52;126656;1311;109734;-82
2021/12/22 11:01:28;;;;;;;75.70;32.70;;;;;;;-1.20;71.53;101318.73;126651;1311;106868;-82
2021/12/22 11:04:35;;;;;;;85.00;36.20;;;;;;;-0.98;71.42;101313.96;127225;1312;108956;-86
2021/12/22 11:07:44;;;;;;;36.60;18.20;;;;;;;-0.85;70.69;101312.13;127020;1311;107851;-83
2021/12/22 11:10:52;;;;;;;30.20;16.60;;;;;;;-0.88;70.15;101312.02;126546;1315;108624;-85
2021/12/22 11:14:16;;;;;;;35.70;17.60;;;;;;;-0.92;69.39;101313.58;126613;1311;107651;-85
2021/12/22 11:17:22;;;;;;;26.30;13.70;;;;;;;-0.95;68.79;101308.30;126648;1312;107955;-85
2021/12/22 11:20:28;;;;;;;310.90;127.00;;;;;;;-1.00;69.78;101305.48;126796;1312;108662;-84
2021/12/22 11:23:37;;;;;;;36.00;16.80;;;;;;;-0.93;68.77;101306.13;126711;1310;108985;-84
2021/12/22 11:26:42;;;;;;;118.00;48.40;;;;;;;-1.12;68.67;101294.36;126709;1312;109042;-86
2021/12/22 11:29:51;;;;;;;27.30;13.20;;;;;;;-1.11;68.93;101311.79;126684;1312;108887;-84
2021/12/22 11:32:57;;;;;;;30.10;13.90;;;;;;;-1.16;68.46;101311.81;126801;1311;108877;-85
2021/12/22 11:36:04;;;;;;;98.10;42.20;;;;;;;-1.20;69.31;101311.06;126948;1312;107571;-85
2021/12/22 11:39:10;;;;;;;38.20;17.30;;;;;;;-1.19;69.40;101314.16;127010;1312;108883;-85
2021/12/22 11:42:16;;;;;;;46.20;21.40;;;;;;;-1.18;69.63;101308.88;127066;1310;107898;-85
2021/12/22 11:45:23;;;;;;;131.80;53.30;;;;;;;-1.19;69.58;101304.89;126730;1311;107831;-85
2021/12/22 11:48:29;;;;;;;106.00;44.50;;;;;;;-1.17;69.02;101303.27;126771;1310;108633;-85
2021/12/22 11:51:36;;;;;;;30.30;13.70;;;;;;;-1.21;67.87;101302.02;127092;1311;108730;-85
2021/12/22 11:55:07;;;;;;;128.80;61.00;;;;;;;-1.34;68.56;101297.70;127666;1311;108757;-80
2021/12/22 11:58:19;;;;;;;31.30;14.70;;;;;;;-1.34;69.50;101304.02;127076;1311;107868;-80
2021/12/22 12:01:25;;;;;;;44.30;17.30;;;;;;;-1.40;68.03;101304.05;126713;1311;107961;-80
2021/12/22 12:04:36;;;;;;;31.30;14.90;;;;;;;-1.45;68.61;101306.83;127061;1313;108740;-78
2021/12/22 12:07:51;;;;;;;42.50;19.60;;;;;;;-1.50;69.14;101302.27;126894;1310;106505;-79
2021/12/22 12:10:59;;;;;;;49.20;21.80;;;;;;;-1.46;69.65;101300.73;126798;1311;108046;-78
2021/12/22 12:14:08;;;;;;;36.40;16.20;;;;;;;-1.44;69.30;101302.23;126980;1310;107813;-79
2021/12/22 12:24:43;;;;;;;37.90;19.30;;;;;;;-1.54;69.74;101296.83;125941;1318;107767;-81
2021/12/22 12:27:51;;;;;;;46.80;24.70;;;;;;;-1.49;69.92;101296.84;126507;1315;107880;-80
2021/12/22 12:30:58;;;;;;;68.70;32.50;;;;;;;-1.38;70.15;101298.38;126621;1311;107620;-78
2021/12/22 12:34:24;;;;;;;32.50;17.20;;;;;;;-1.17;70.11;101296.27;126636;1311;107797;-79
2021/12/22 12:37:58;;;;;;;30.70;15.20;;;;;;;-0.97;69.77;101296.10;126520;1311;107784;-82
2021/12/22 12:41:23;;;;;;;31.30;16.40;;;;;;;-0.84;69.71;101297.05;126808;1311;108737;-83
2021/12/22 12:44:32;;;;;;;58.70;26.60;;;;;;;-0.79;69.07;101298.28;126830;1311;107733;-82
2021/12/22 12:47:37;;;;;;;31.10;15.50;;;;;;;-0.89;68.83;101293.55;126337;1310;105460;-82
2021/12/22 12:50:43;;;;;;;23.70;13.30;;;;;;;-0.93;69.42;101294.23;126500;1311;107895;-83
2021/12/22 12:53:51;;;;;;;70.30;34.10;;;;;;;-0.90;69.51;101291.66;126459;1310;107794;-81
2021/12/22 12:56:59;;;;;;;49.20;24.30;;;;;;;-0.83;69.74;101297.21;126343;1312;107806;-82
2021/12/22 13:00:18;;;;;;;65.40;30.60;;;;;;;-0.90;69.11;101298.83;126411;1310;107945;-80
2021/12/22 13:03:23;;;;;;;100.40;44.40;;;;;;;-0.92;69.66;101295.42;126335;1315;107870;-79
2021/12/22 13:06:29;;;;;;;375.70;169.70;;;;;;;-0.89;69.79;101293.92;126378;1312;107812;-83
2021/12/22 13:09:36;;;;;;;200.30;86.90;;;;;;;-0.87;69.71;101295.42;126473;1311;105492;-82
2021/12/22 13:16:19;;;;;;;67.30;30.60;;;;;;;-0.92;69.58;101301.00;126438;1314;107932;-82
2021/12/22 13:19:42;;;;;;;59.80;29.50;;;;;;;-1.01;68.98;101302.39;126350;1311;108837;-82
2021/12/22 13:22:51;;;;;;;73.00;33.80;;;;;;;-1.17;68.79;101305.35;126377;1312;107909;-82
2021/12/22 13:25:59;;;;;;;36.40;19.20;;;;;;;-1.32;68.62;101309.17;126330;1312;107825;-83
2021/12/22 13:29:05;;;;;;;47.40;24.50;;;;;;;-1.46;68.74;101308.77;126413;1312;107751;-82
2021/12/22 13:32:11;;;;;;;35.70;19.10;;;;;;;-1.51;69.49;101315.73;126372;1310;107899;-82
2021/12/22 13:35:29;;;;;;;30.00;16.40;;;;;;;-1.54;69.44;101312.17;126414;1312;107923;-82
2021/12/22 13:38:36;;;;;;;31.10;16.60;;;;;;;-1.57;69.28;101307.02;126386;1312;107774;-82
2021/12/22 13:41:41;;;;;;;28.00;15.80;;;;;;;-1.61;69.17;101307.35;126497;1313;109155;-82
2021/12/22 13:44:47;;;;;;;27.40;15.00;;;;;;;-1.67;69.27;101307.88;126365;1311;107771;-82
2021/12/22 13:47:53;;;;;;;25.80;13.10;;;;;;;-1.74;69.04;101312.11;126554;1312;107723;-82
2021/12/22 13:51:03;;;;;;;24.30;12.90;;;;;;;-1.84;69.21;101314.15;126376;1310;107478;-82
2021/12/22 13:54:11;;;;;;;26.10;13.50;;;;;;;-1.93;69.28;101313.94;126487;1313;107785;-83
2021/12/22 13:57:26;;;;;;;22.80;12.70;;;;;;;-2.02;69.13;101318.90;126513;1312;107726;-81
2021/12/22 14:00:32;;;;;;;25.80;14.40;;;;;;;-2.11;69.21;101320.56;126283;1312;107815;-82
2021/12/22 14:03:38;;;;;;;33.70;21.90;;;;;;;-2.19;69.26;101322.56;126371;1310;107782;-82
2021/12/22 14:06:45;;;;;;;32.20;18.70;;;;;;;-2.24;69.47;101319.90;126571;1310;105958;-83
2021/12/22 14:09:53;;;;;;;29.40;16.20;;;;;;;-2.23;69.66;101315.02;126439;1311;106781;-82
2021/12/22 14:13:00;;;;;;;29.70;16.40;;;;;;;-2.21;69.21;101320.85;126677;1309;107797;-83
2021/12/22 14:16:06;;;;;;;108.90;49.30;;;;;;;-2.16;69.32;101317.21;126730;1312;107795;-82
2021/12/22 14:19:18;;;;;;;39.50;21.30;;;;;;;-2.09;69.28;101318.95;126743;1309;107749;-83